createdAt,value
2022-10-29T00:00:55.803Z,3.33
2022-10-29T00:03:24.412Z,2.60
2022-10-29T00:06:07.157Z,2.42
2022-10-29T00:08:36.964Z,4.53
2022-10-29T00:11:15.256Z,2.78
2022-10-29T00:13:43.271Z,3.47
2022-10-29T00:16:20.861Z,2.88
2022-10-29T00:18:48.118Z,3.28
2022-10-29T00:21:26.728Z,2.55
2022-10-29T00:23:53.949Z,2.67
2022-10-29T00:26:23.001Z,2.55
2022-10-29T00:28:54.671Z,3.42
2022-10-29T00:31:25.971Z,2.70
2022-10-29T00:33:55.513Z,5.00
2022-10-29T00:36:26.796Z,2.60
2022-10-29T00:38:54.272Z,4.30
2022-10-29T00:41:26.447Z,3.88
2022-10-29T00:44:20.644Z,7.95
2022-10-29T00:46:57.237Z,4.90
2022-10-29T00:49:25.348Z,3.10
2022-10-29T00:51:53.347Z,3.72
2022-10-29T00:54:20.496Z,3.45
2022-10-29T00:56:56.493Z,2.22
2022-10-29T00:59:24.232Z,2.15
2022-10-29T01:01:51.296Z,1.08
2022-10-29T01:04:19.293Z,3.45
2022-10-29T01:06:47.374Z,1.70
2022-10-29T01:09:15.374Z,1.65
2022-10-29T01:12:34.169Z,5.32
2022-10-29T01:15:07.792Z,2.30
2022-10-29T01:18:20.346Z,2.60
2022-10-29T01:21:34.752Z,2.10
2022-10-29T01:24:40.654Z,2.65
2022-10-29T01:27:26.686Z,2.50
2022-10-29T01:30:08.144Z,2.13
2022-10-29T01:32:59.287Z,2.58
2022-10-29T01:35:34.499Z,2.15
2022-10-29T01:38:47.490Z,1.67
2022-10-29T01:41:48.816Z,1.98
2022-10-29T01:44:41.579Z,1.52
2022-10-29T01:47:19.448Z,1.60
2022-10-29T01:49:52.657Z,1.30
2022-10-29T01:52:22.411Z,3.50
2022-10-29T01:54:49.678Z,2.97
2022-10-29T01:57:38.296Z,8.45
2022-10-29T02:00:13.818Z,1.98
2022-10-29T02:03:15.421Z,1.80
2022-10-29T02:06:07.511Z,4.07
2022-10-29T02:09:03.396Z,2.33
2022-10-29T02:11:58.410Z,1.58
2022-10-29T02:14:45.213Z,2.95
2022-10-29T02:17:12.560Z,3.50
2022-10-29T02:19:39.602Z,5.65
2022-10-29T02:22:06.563Z,4.50
2022-10-29T02:24:33.438Z,4.47
2022-10-29T02:27:00.541Z,8.30
2022-10-29T02:29:27.425Z,8.77
2022-10-29T02:31:54.710Z,3.33
2022-10-29T02:34:21.584Z,1.55
2022-10-29T02:36:48.667Z,2.80
2022-10-29T02:39:15.550Z,2.22
2022-10-29T02:41:42.617Z,2.30
2022-10-29T02:44:09.633Z,2.22
2022-10-29T02:46:39.540Z,2.20
2022-10-29T02:49:07.604Z,2.97
2022-10-29T02:51:34.487Z,2.47
2022-10-29T02:54:01.371Z,3.55
2022-10-29T02:56:28.452Z,3.63
2022-10-29T02:58:55.871Z,6.20
2022-10-29T03:01:22.899Z,1.92
2022-10-29T03:03:49.857Z,1.92
2022-10-29T03:06:19.185Z,1.63
2022-10-29T03:08:46.869Z,1.58
2022-10-29T03:11:14.481Z,2.03
2022-10-29T03:13:41.515Z,1.50
2022-10-29T03:16:08.580Z,2.20
2022-10-29T03:18:35.512Z,2.53
2022-10-29T03:21:02.406Z,2.85
2022-10-29T03:23:29.385Z,3.00
2022-10-29T03:25:56.708Z,2.15
2022-10-29T03:28:25.643Z,1.60
2022-10-29T03:30:52.552Z,2.90
2022-10-29T03:33:19.562Z,2.78
2022-10-29T03:35:46.633Z,2.53
2022-10-29T03:38:13.716Z,5.72
2022-10-29T03:40:40.837Z,3.90
2022-10-29T03:43:07.705Z,1.73
2022-10-29T03:45:34.555Z,2.38
2022-10-29T03:48:05.070Z,2.83
2022-10-29T03:50:32.145Z,3.28
2022-10-29T03:52:59.225Z,3.40
2022-10-29T03:55:29.090Z,3.30
2022-10-29T03:57:56.615Z,3.83
2022-10-29T04:00:24.197Z,3.03
2022-10-29T04:02:51.536Z,6.90
2022-10-29T04:05:18.640Z,5.10
2022-10-29T04:07:45.533Z,5.50
2022-10-29T04:10:12.402Z,5.60
2022-10-29T04:12:39.333Z,5.20
2022-10-29T04:15:07.260Z,4.40
2022-10-29T04:17:34.501Z,5.68
2022-10-29T04:20:01.473Z,5.80
2022-10-29T04:28:42.552Z,4.80
2022-10-29T04:30:50.130Z,4.68
2022-10-29T04:33:17.448Z,4.53
2022-10-29T04:35:44.490Z,5.22
2022-10-29T04:38:12.917Z,4.65
2022-10-29T04:40:39.826Z,6.90
2022-10-29T04:43:06.753Z,5.80
2022-10-29T04:45:33.862Z,7.20
2022-10-29T04:48:02.347Z,5.00
2022-10-29T04:50:30.493Z,6.88
2022-10-29T04:53:05.858Z,4.95
2022-10-29T04:55:36.237Z,2.88
2022-10-29T04:58:03.129Z,2.83
2022-10-29T05:00:30.113Z,2.78
2022-10-29T05:02:57.464Z,2.75
2022-10-29T05:05:25.055Z,3.40
2022-10-29T05:08:03.852Z,3.08
2022-10-29T05:10:34.617Z,3.38
2022-10-29T05:13:05.210Z,2.38
2022-10-29T05:15:32.081Z,2.20
2022-10-29T05:17:59.817Z,2.72
2022-10-29T05:20:27.400Z,1.92
2022-10-29T05:23:07.782Z,1.75
2022-10-29T05:25:37.408Z,2.35
2022-10-29T05:28:09.281Z,2.10
2022-10-29T05:30:36.439Z,2.22
2022-10-29T05:33:09.500Z,1.80
2022-10-29T05:35:37.173Z,2.30
2022-10-29T05:38:04.942Z,3.88
2022-10-29T05:40:32.576Z,3.75
2022-10-29T05:43:00.183Z,4.55
2022-10-29T05:45:27.544Z,7.22
2022-10-29T05:47:59.026Z,6.25
2022-10-29T05:50:28.857Z,5.38
2022-10-29T05:53:07.178Z,4.97
2022-10-29T05:55:36.025Z,6.03
2022-10-29T05:58:07.233Z,6.75
2022-10-29T06:00:37.682Z,8.85
2022-10-29T06:03:11.665Z,6.80
2022-10-29T06:05:38.599Z,5.97
2022-10-29T06:08:05.710Z,6.88
2022-10-29T06:10:33.495Z,6.40
2022-10-29T06:13:00.471Z,7.10
2022-10-29T06:15:27.574Z,7.38
2022-10-29T06:17:54.772Z,6.03
2022-10-29T06:20:22.092Z,7.65
2022-10-29T06:22:58.304Z,6.68
2022-10-29T06:25:26.745Z,7.38
2022-10-29T06:28:09.099Z,7.05
2022-10-29T06:30:37.155Z,6.60
2022-10-29T06:33:05.553Z,6.57
2022-10-29T06:38:00.852Z,6.80
2022-10-29T06:40:28.461Z,6.95
2022-10-29T06:43:08.923Z,6.00
2022-10-29T06:45:36.459Z,6.30
2022-10-29T06:48:05.569Z,6.22
2022-10-29T06:50:32.762Z,5.95
2022-10-29T06:53:09.334Z,7.70
2022-10-29T06:55:36.634Z,6.32
2022-10-29T06:58:07.329Z,6.30
2022-10-29T07:00:35.152Z,6.50
2022-10-29T07:03:03.532Z,5.07
2022-10-29T07:05:30.863Z,6.68
2022-10-29T07:08:02.377Z,5.55
2022-10-29T07:10:32.019Z,5.40
2022-10-29T07:12:59.638Z,5.28
2022-10-29T07:15:30.480Z,5.72
2022-10-29T07:18:06.185Z,5.43
2022-10-29T07:20:42.713Z,5.60
2022-10-29T07:23:13.535Z,4.80
2022-10-29T07:25:41.602Z,6.10
2022-10-29T07:28:18.405Z,5.82
2022-10-29T07:30:45.618Z,5.60
2022-10-29T07:33:12.866Z,8.13
2022-10-29T07:35:39.919Z,6.88
2022-10-29T07:38:10.752Z,5.40
2022-10-29T07:40:49.482Z,6.20
2022-10-29T07:43:20.034Z,6.28
2022-10-29T07:45:50.226Z,6.75
2022-10-29T07:48:19.222Z,7.35
2022-10-29T07:50:46.828Z,6.95
2022-10-29T07:53:14.213Z,8.15
2022-10-29T07:55:41.183Z,7.25
2022-10-29T07:58:12.243Z,7.72
2022-10-29T08:00:41.076Z,8.40
2022-10-29T08:03:08.615Z,11.52
2022-10-29T08:05:35.757Z,10.63
2022-10-29T08:08:02.821Z,12.38
2022-10-29T08:10:31.850Z,11.25
2022-10-29T08:13:01.964Z,11.35
2022-10-29T08:15:32.487Z,9.60
2022-10-29T08:17:59.640Z,9.18
2022-10-29T08:20:28.715Z,10.20
2022-10-29T08:22:55.970Z,11.82
2022-10-29T08:25:23.175Z,10.93
2022-10-29T08:28:05.163Z,10.50
2022-10-29T08:30:32.736Z,12.18
2022-10-29T08:33:00.861Z,12.18
2022-10-29T08:35:29.100Z,12.13
2022-10-29T08:37:56.275Z,12.02
2022-10-29T08:41:06.265Z,11.40
2022-10-29T08:44:14.945Z,12.27
2022-10-29T08:46:55.295Z,12.35
2022-10-29T08:49:30.705Z,12.93
2022-10-29T08:52:05.232Z,13.18
2022-10-29T08:54:37.818Z,12.88
2022-10-29T08:57:16.464Z,12.07
2022-10-29T09:00:13.389Z,11.02
2022-10-29T09:02:40.542Z,12.50
2022-10-29T09:05:20.462Z,13.02
2022-10-29T09:08:20.358Z,12.77
2022-10-29T09:10:54.456Z,12.02
2022-10-29T09:13:37.633Z,10.40
2022-10-29T09:16:21.633Z,9.25
2022-10-29T09:19:21.900Z,11.32
2022-10-29T09:22:19.583Z,10.35
2022-10-29T09:25:11.961Z,10.52
2022-10-29T09:28:01.702Z,11.77
2022-10-29T09:30:41.066Z,11.13
2022-10-29T09:33:18.370Z,11.88
2022-10-29T09:35:52.997Z,12.13
2022-10-29T09:38:30.822Z,10.87
2022-10-29T09:41:00.347Z,10.98
2022-10-29T09:43:42.195Z,11.70
2022-10-29T09:46:38.743Z,10.63
2022-10-29T09:49:46.564Z,10.88
2022-10-29T09:52:19.140Z,11.27
2022-10-29T09:54:48.646Z,11.07
2022-10-29T09:57:25.234Z,11.90
2022-10-29T10:00:04.108Z,11.73
2022-10-29T10:03:03.511Z,12.82
2022-10-29T10:05:34.181Z,11.77
2022-10-29T10:08:12.321Z,10.85
2022-10-29T10:11:01.304Z,11.10
2022-10-29T10:13:34.345Z,10.13
2022-10-29T10:16:05.299Z,11.05
2022-10-29T10:18:32.210Z,11.70
2022-10-29T10:21:26.781Z,10.73
2022-10-29T10:23:57.559Z,10.15
2022-10-29T10:26:43.255Z,10.93
2022-10-29T10:31:57.041Z,10.65
2022-10-29T10:34:38.010Z,12.43
2022-10-29T10:37:18.500Z,10.77
2022-10-29T10:39:50.648Z,11.77
2022-10-29T10:42:26.855Z,10.38
2022-10-29T10:45:00.259Z,10.55
2022-10-29T10:47:35.505Z,11.18
2022-10-29T10:50:27.302Z,12.13
2022-10-29T10:52:56.297Z,11.55
2022-10-29T10:55:38.720Z,10.40
2022-10-29T10:58:33.075Z,10.95
2022-10-29T11:01:06.628Z,10.10
2022-10-29T11:03:36.256Z,10.65
2022-10-29T11:06:07.384Z,10.18
2022-10-29T11:08:53.278Z,9.32
2022-10-29T11:14:43.930Z,8.57
2022-10-29T11:17:22.543Z,8.75
2022-10-29T11:19:51.635Z,8.43
2022-10-29T11:22:42.051Z,9.13
2022-10-29T11:25:37.551Z,9.75
2022-10-29T11:28:25.015Z,8.50
2022-10-29T11:31:17.917Z,8.68
2022-10-29T11:34:06.425Z,8.88
2022-10-29T11:36:41.832Z,8.10
2022-10-29T11:41:58.780Z,7.60
2022-10-29T11:44:26.563Z,7.35
2022-10-29T11:47:22.792Z,7.50
2022-10-29T11:52:48.348Z,7.15
2022-10-29T11:55:54.795Z,8.18
2022-10-29T11:58:38.115Z,6.40
2022-10-29T12:01:14.610Z,6.00
2022-10-29T12:07:11.206Z,5.40
2022-10-29T12:10:13.295Z,6.07
2022-10-29T12:12:55.879Z,6.40
2022-10-29T12:15:31.408Z,6.00
2022-10-29T12:18:25.443Z,4.95
2022-10-29T12:21:26.936Z,4.78
2022-10-29T12:24:34.757Z,4.45
2022-10-29T12:27:56.277Z,4.28
2022-10-29T12:30:24.795Z,3.85
2022-10-29T12:33:05.482Z,4.15
2022-10-29T12:35:59.625Z,5.15
2022-10-29T12:38:43.689Z,4.05
2022-10-29T12:41:21.246Z,3.78
2022-10-29T12:43:48.825Z,3.70
2022-10-29T12:46:37.464Z,4.65
2022-10-29T12:49:13.949Z,4.63
2022-10-29T12:52:02.474Z,4.05
2022-10-29T12:54:45.446Z,4.78
2022-10-29T12:57:15.090Z,4.88
2022-10-29T12:59:43.797Z,4.25
2022-10-29T13:02:44.987Z,4.57
2022-10-29T13:05:14.189Z,5.50
2022-10-29T13:07:47.007Z,4.40
2022-10-29T13:10:27.088Z,4.90
2022-10-29T13:12:59.896Z,6.60
2022-10-29T13:16:01.097Z,4.93
2022-10-29T13:18:41.658Z,4.13
2022-10-29T13:21:09.383Z,4.38
2022-10-29T13:23:37.788Z,5.05
2022-10-29T13:26:08.930Z,3.92
2022-10-29T13:28:35.685Z,6.57
2022-10-29T13:31:22.462Z,4.85
2022-10-29T13:33:50.574Z,4.68
2022-10-29T13:36:17.430Z,5.18
2022-10-29T13:39:04.211Z,3.95
2022-10-29T13:41:43.484Z,3.60
2022-10-29T13:44:21.321Z,4.50
2022-10-29T13:47:01.090Z,4.10
2022-10-29T13:49:42.542Z,3.67
2022-10-29T13:52:09.385Z,4.97
2022-10-29T13:55:08.221Z,4.45
2022-10-29T13:57:54.391Z,4.40
2022-10-29T14:00:22.449Z,4.22
2022-10-29T14:03:13.864Z,5.25
2022-10-29T14:05:57.038Z,4.18
2022-10-29T14:08:40.941Z,4.18
2022-10-29T14:11:21.329Z,5.30
2022-10-29T14:13:52.216Z,4.50
2022-10-29T14:16:24.944Z,5.25
2022-10-29T14:18:53.948Z,5.20
2022-10-29T14:21:30.382Z,5.70
2022-10-29T14:24:05.475Z,4.25
2022-10-29T14:26:37.129Z,4.35
2022-10-29T14:29:24.451Z,4.00
2022-10-29T14:32:07.340Z,3.83
2022-10-29T14:34:34.391Z,4.45
2022-10-29T14:37:11.864Z,4.70
2022-10-29T14:39:59.034Z,4.75
2022-10-29T14:42:43.611Z,4.38
2022-10-29T14:45:36.548Z,4.30
2022-10-29T14:48:16.199Z,5.07
2022-10-29T14:50:50.072Z,5.45
2022-10-29T14:53:34.922Z,4.47
2022-10-29T14:56:10.096Z,4.17
2022-10-29T14:58:38.692Z,4.38
2022-10-29T15:01:13.860Z,5.07
2022-10-29T15:03:41.104Z,4.78
2022-10-29T15:06:15.664Z,4.50
2022-10-29T15:08:45.637Z,5.30
2022-10-29T15:11:38.500Z,5.63
2022-10-29T15:14:36.792Z,5.10
2022-10-29T15:17:11.558Z,5.60
2022-10-29T15:19:44.599Z,4.65
2022-10-29T15:22:18.809Z,5.03
2022-10-29T15:24:49.640Z,4.75
2022-10-29T15:27:16.708Z,4.60
2022-10-29T15:29:48.020Z,4.88
2022-10-29T15:32:17.714Z,4.68
2022-10-29T15:34:54.501Z,5.18
2022-10-29T15:37:25.833Z,5.45
2022-10-29T15:39:56.552Z,5.68
2022-10-29T15:42:32.113Z,4.63
2022-10-29T15:45:08.268Z,5.00
2022-10-29T15:47:44.386Z,5.93
2022-10-29T15:50:21.554Z,4.78
2022-10-29T15:53:01.904Z,5.25
2022-10-29T15:55:35.158Z,4.93
2022-10-29T15:58:23.130Z,4.75
2022-10-29T16:00:50.881Z,5.18
2022-10-29T16:03:24.363Z,6.55
2022-10-29T16:05:56.531Z,5.30
2022-10-29T16:08:28.400Z,5.90
2022-10-29T16:10:57.822Z,6.28
2022-10-29T16:13:27.277Z,6.63
2022-10-29T16:15:54.189Z,7.18
2022-10-29T16:18:21.178Z,5.18
2022-10-29T16:20:49.321Z,6.50
2022-10-29T16:23:16.226Z,5.43
2022-10-29T16:25:43.105Z,6.13
2022-10-29T16:28:10.455Z,5.72
2022-10-29T16:33:05.241Z,6.22
2022-10-29T16:35:32.234Z,6.22
2022-10-29T16:37:59.283Z,5.72
2022-10-29T16:40:28.137Z,5.85
2022-10-29T16:42:56.159Z,6.28
2022-10-29T16:45:29.907Z,5.72
2022-10-29T16:47:57.960Z,5.85
2022-10-29T16:50:28.790Z,6.18
2022-10-29T16:53:04.361Z,5.75
2022-10-29T16:55:31.253Z,8.02
2022-10-29T16:57:59.078Z,7.03
2022-10-29T17:00:26.504Z,7.30
2022-10-29T17:02:53.575Z,8.05
2022-10-29T17:05:20.518Z,8.35
2022-10-29T17:07:47.397Z,11.57
2022-10-29T17:10:14.660Z,10.18
2022-10-29T17:12:41.565Z,10.25
2022-10-29T17:15:09.200Z,9.40
2022-10-29T17:17:36.161Z,8.55
2022-10-29T17:20:05.421Z,9.80
2022-10-29T17:22:32.299Z,8.18
2022-10-29T17:24:59.316Z,9.85
2022-10-29T17:27:26.204Z,8.55
2022-10-29T17:29:53.084Z,10.35
2022-10-29T17:32:20.137Z,9.93
2022-10-29T17:34:47.374Z,10.98
2022-10-29T17:37:14.353Z,9.48
2022-10-29T17:39:41.341Z,10.93
2022-10-29T17:42:08.248Z,8.90
2022-10-29T17:44:36.208Z,10.13
2022-10-29T17:47:03.153Z,11.23
2022-10-29T17:49:30.072Z,9.13
2022-10-29T17:51:56.983Z,8.80
2022-10-29T17:54:23.875Z,7.60
2022-10-29T17:56:52.344Z,7.68
2022-10-29T17:59:19.279Z,8.18
2022-10-29T18:01:46.379Z,7.80
2022-10-29T18:04:13.610Z,7.75
2022-10-29T18:06:40.605Z,7.72
2022-10-29T18:09:07.964Z,8.60
2022-10-29T18:11:34.909Z,7.93
2022-10-29T18:14:01.899Z,6.85
2022-10-29T18:16:30.042Z,7.57
2022-10-29T18:19:02.921Z,8.02
2022-10-29T18:21:31.039Z,8.70
2022-10-29T18:23:58.500Z,7.45
2022-10-29T18:26:35.131Z,7.97
2022-10-29T18:29:07.797Z,9.02
2022-10-29T18:31:35.643Z,7.82
2022-10-29T18:34:06.207Z,8.48
2022-10-29T18:36:35.645Z,7.75
2022-10-29T18:39:04.298Z,10.00
2022-10-29T18:41:31.518Z,8.30
2022-10-29T18:43:59.322Z,8.57
2022-10-29T18:46:27.011Z,8.30
2022-10-29T18:48:53.922Z,7.70
2022-10-29T18:51:28.322Z,6.57
2022-10-29T18:54:00.494Z,5.60
2022-10-29T18:56:29.651Z,5.28
2022-10-29T18:58:57.804Z,4.93
2022-10-29T19:01:28.901Z,5.88
2022-10-29T19:04:05.493Z,5.45
2022-10-29T19:06:35.561Z,5.22
2022-10-29T19:09:06.490Z,5.78
2022-10-29T19:11:33.765Z,5.18
2022-10-29T19:14:07.343Z,4.50
2022-10-29T19:16:35.104Z,4.60
2022-10-29T19:21:37.528Z,4.45
2022-10-29T19:24:05.731Z,4.85
2022-10-29T19:26:34.617Z,5.10
2022-10-29T19:29:03.512Z,5.05
2022-10-29T19:31:32.223Z,4.57
2022-10-29T19:34:02.982Z,5.10
2022-10-29T19:36:30.803Z,4.85
2022-10-29T19:38:58.185Z,4.93
2022-10-29T19:41:25.330Z,4.80
2022-10-29T19:43:52.710Z,4.85
2022-10-29T19:46:24.692Z,5.60
2022-10-29T19:48:54.481Z,4.28
2022-10-29T19:51:22.256Z,5.32
2022-10-29T19:53:51.551Z,4.55
2022-10-29T19:56:19.593Z,4.75
2022-10-29T19:58:46.972Z,4.85
2022-10-29T20:01:17.198Z,4.20
2022-10-29T20:03:45.555Z,5.53
2022-10-29T20:06:13.045Z,4.60
2022-10-29T20:08:40.060Z,5.10
2022-10-29T20:11:07.722Z,3.92
2022-10-29T20:13:34.897Z,4.07
2022-10-29T20:16:14.235Z,4.38
2022-10-29T20:18:41.145Z,3.50
2022-10-29T20:21:09.089Z,3.28
2022-10-29T20:23:36.732Z,4.50
2022-10-29T20:26:04.243Z,3.88
2022-10-29T20:28:31.306Z,4.50
2022-10-29T20:31:17.647Z,3.95
2022-10-29T20:33:59.435Z,4.13
2022-10-29T20:36:30.846Z,4.90
2022-10-29T20:38:58.428Z,3.58
2022-10-29T20:41:25.301Z,4.78
2022-10-29T20:43:59.032Z,3.35
2022-10-29T20:46:26.384Z,4.32
2022-10-29T20:48:53.408Z,4.38
2022-10-29T20:51:20.373Z,4.28
2022-10-29T20:53:47.338Z,4.72
2022-10-29T20:56:16.291Z,5.88
2022-10-29T20:58:43.855Z,4.60
2022-10-29T21:01:17.090Z,4.07
2022-10-29T21:03:44.836Z,4.13
2022-10-29T21:06:17.020Z,4.47
2022-10-29T21:08:46.018Z,4.65
2022-10-29T21:11:14.932Z,6.40
2022-10-29T21:13:42.393Z,4.47
2022-10-29T21:16:22.828Z,4.13
2022-10-29T21:18:52.826Z,4.22
2022-10-29T21:21:19.899Z,4.57
2022-10-29T21:23:47.484Z,4.68
2022-10-29T21:26:23.605Z,4.20
2022-10-29T21:28:52.558Z,5.60
2022-10-29T21:31:20.965Z,4.70
2022-10-29T21:33:52.981Z,4.15
2022-10-29T21:36:20.143Z,4.75
2022-10-29T21:38:48.016Z,4.03
2022-10-29T21:41:15.949Z,4.53
2022-10-29T21:43:42.997Z,5.13
2022-10-29T21:46:10.308Z,5.00
2022-10-29T21:48:37.360Z,4.68
2022-10-29T21:51:13.222Z,4.35
2022-10-29T21:53:40.459Z,4.25
2022-10-29T21:56:10.944Z,3.97
2022-10-29T21:58:37.949Z,3.50
2022-10-29T22:01:14.645Z,4.35
2022-10-29T22:03:45.388Z,4.93
2022-10-29T22:06:17.411Z,4.20
2022-10-29T22:08:45.739Z,4.85
2022-10-29T22:11:14.573Z,3.83
2022-10-29T22:13:41.628Z,4.15
2022-10-29T22:16:09.512Z,4.45
2022-10-29T22:18:37.845Z,4.70
2022-10-29T22:21:14.617Z,4.95
2022-10-29T22:23:47.358Z,4.63
2022-10-29T22:26:16.544Z,4.50
2022-10-29T22:28:43.908Z,4.35
2022-10-29T22:31:11.472Z,4.40
2022-10-29T22:33:38.988Z,3.63
2022-10-29T22:36:10.839Z,4.22
2022-10-29T22:38:38.325Z,4.10
2022-10-29T22:41:20.009Z,5.03
2022-10-29T22:43:47.039Z,4.30
2022-10-29T22:46:16.208Z,4.72
2022-10-29T22:48:45.819Z,3.97
2022-10-29T22:51:22.249Z,4.53
2022-10-29T22:53:51.210Z,3.88
2022-10-29T22:56:25.045Z,4.43
2022-10-29T22:58:52.790Z,4.70
2022-10-29T23:01:23.815Z,4.57
2022-10-29T23:03:51.197Z,4.53
2022-10-29T23:06:22.079Z,4.82
2022-10-29T23:08:52.599Z,4.18
2022-10-29T23:11:22.069Z,4.72
2022-10-29T23:13:52.501Z,5.13
2022-10-29T23:16:19.829Z,4.13
2022-10-29T23:18:56.047Z,4.50
2022-10-29T23:21:23.514Z,5.28
2022-10-29T23:23:50.789Z,4.88
2022-10-29T23:26:19.680Z,4.53
2022-10-29T23:28:47.563Z,5.28
2022-10-29T23:31:18.804Z,3.92
2022-10-29T23:33:48.644Z,5.50
2022-10-29T23:36:16.882Z,4.65
2022-10-29T23:38:44.396Z,4.85
2022-10-29T23:41:12.375Z,3.80
2022-10-29T23:43:39.309Z,4.53
2022-10-29T23:46:06.600Z,4.10
2022-10-29T23:48:33.511Z,3.58
2022-10-29T23:51:00.719Z,4.50
2022-10-29T23:53:27.598Z,3.85
2022-10-29T23:55:54.453Z,5.45
2022-10-29T23:58:21.428Z,4.80
